Terminal Aerodrome Forecast
Issued by NWS

Home | Current Version | Previous Version | Text Only | Print | Product List | Glossary On
Versions: 1 2 3 4 5 6 7 8 9 10 11 12 13
409
FTUS46 KMFR 021738
TAFRBG
TAF
KRBG 021738Z 0218/0318 VRB03KT P6SM FEW050
     FM022200 35007KT P6SM SCT050 SCT100
     FM030100 33009KT P6SM VCTS SCT050CB BKN080
     FM030400 VRB03KT P6SM FEW050 BKN080=

USA.gov is the U.S. government's official web portal to all federal, state and local government web resources and services.